Time;durP1;ratioP1;P1;durP2;ratioP2;P2;SDS_P1;SDS_P2;PMS_P1;PMS_P2;Temp;Humidity;BMP_temperature;BMP_pressure;BME280_temperature;BME280_humidity;BME280_pressure;Samples;Min_cycle;Max_cycle;Signal;HPM_P1;HPM_P2
2021/12/07 00:20:08;;;;;;;5.65;4.57;;;;;;;;;;4362419;29;20113;-62
2021/12/07 00:22:35;;;;;;;4.87;4.37;;;;;;;;;;4150778;34;20504;-62
2021/12/07 00:25:01;;;;;;;5.43;4.22;;;;;;;;;;4141276;34;20522;-62
2021/12/07 00:27:27;;;;;;;3.55;3.25;;;;;;;;;;4137312;34;20496;-62
2021/12/07 00:29:54;;;;;;;3.80;3.50;;;;;;;;;;4137258;34;20515;-71
2021/12/07 00:32:31;;;;;;;4.55;3.40;;;;;;;;;;4124752;34;20123;-70
2021/12/07 00:35:16;;;;;;;3.50;2.92;;;;;;;;;;4137333;34;20126;-70
2021/12/07 00:37:47;;;;;;;3.70;3.40;;;;;;;;;;4137193;34;20135;-70
2021/12/07 00:40:15;;;;;;;3.17;2.90;;;;;;;;;;4137082;34;20126;-62
2021/12/07 00:42:41;;;;;;;3.30;3.00;;;;;;;;;;4137105;34;20187;-62
2021/12/07 00:45:08;;;;;;;3.80;3.28;;;;;;;;;;4136924;34;20499;-63
2021/12/07 00:47:34;;;;;;;3.75;3.20;;;;;;;;;;4137050;34;20114;-63
2021/12/07 00:50:00;;;;;;;3.65;3.35;;;;;;;;;;4136900;34;20087;-63
2021/12/07 00:52:27;;;;;;;3.10;2.83;;;;;;;;;;4137045;34;20464;-63
2021/12/07 00:54:53;;;;;;;3.95;3.25;;;;;;;;;;4124365;34;20112;-63
2021/12/07 00:57:20;;;;;;;3.47;3.17;;;;;;;;;;4137216;34;20139;-63
2021/12/07 00:59:46;;;;;;;3.60;3.28;;;;;;;;;;4137174;34;20215;-63
2021/12/07 01:02:12;;;;;;;3.62;3.33;;;;;;;;;;4137242;34;20196;-63
2021/12/07 01:04:40;;;;;;;3.47;3.17;;;;;;;;;;4137315;34;20167;-62
2021/12/07 01:07:17;;;;;;;3.22;2.92;;;;;;;;;;4136119;34;20123;-63
2021/12/07 01:24:40;;;;;;;3.92;3.50;;;;;;;;;;4136846;34;20562;-63
2021/12/07 01:26:13;;;;;;;3.40;3.10;;;;;;;;;;4136565;34;20653;-72
2021/12/07 01:28:43;;;;;;;3.28;2.97;;;;;;;;;;4136610;34;20095;-73
2021/12/07 01:59:36;;;;;;;3.53;3.22;;;;;;;;;;4120174;34;20111;-73
2021/12/07 02:02:07;;;;;;;3.87;3.22;;;;;;;;;;4136409;34;20111;-74
2021/12/07 02:04:34;;;;;;;3.72;3.37;;;;;;;;;;4136376;34;20133;-73
2021/12/07 02:07:00;;;;;;;4.37;3.58;;;;;;;;;;4123902;34;20509;-73
2021/12/07 02:09:26;;;;;;;5.25;3.80;;;;;;;;;;4112809;34;20124;-77
2021/12/07 02:11:58;;;;;;;4.93;3.40;;;;;;;;;;4136305;34;20095;-72
2021/12/07 02:14:25;;;;;;;4.25;3.60;;;;;;;;;;4136372;34;20613;-70
2021/12/07 02:16:54;;;;;;;4.60;3.72;;;;;;;;;;4123774;34;20183;-70
2021/12/07 02:19:20;;;;;;;3.58;3.28;;;;;;;;;;4123393;34;20133;-71
2021/12/07 02:21:46;;;;;;;4.15;3.60;;;;;;;;;;4136065;34;20139;-71
2021/12/07 02:24:13;;;;;;;4.05;3.20;;;;;;;;;;4124123;34;20152;-71
2021/12/07 02:26:39;;;;;;;3.95;3.42;;;;;;;;;;4136118;34;20103;-71
2021/12/07 02:29:05;;;;;;;3.90;3.50;;;;;;;;;;4136200;34;20115;-72
2021/12/07 02:31:32;;;;;;;5.07;3.30;;;;;;;;;;4123907;34;20204;-71
2021/12/07 02:33:59;;;;;;;3.45;3.15;;;;;;;;;;4124132;34;20618;-71
2021/12/07 02:36:25;;;;;;;3.80;3.40;;;;;;;;;;4136084;34;20459;-72
2021/12/07 02:38:51;;;;;;;3.62;3.33;;;;;;;;;;4123862;34;20121;-71
2021/12/07 02:41:18;;;;;;;3.83;3.42;;;;;;;;;;4136113;34;20115;-70
2021/12/07 02:43:44;;;;;;;5.55;3.20;;;;;;;;;;4136042;34;20227;-71
2021/12/07 02:46:10;;;;;;;8.20;3.03;;;;;;;;;;4135922;34;20544;-70
2021/12/07 02:48:37;;;;;;;3.60;2.83;;;;;;;;;;4135877;34;20126;-71
2021/12/07 02:51:03;;;;;;;4.95;3.55;;;;;;;;;;4135940;34;20132;-68
2021/12/07 02:53:31;;;;;;;3.90;3.47;;;;;;;;;;4135739;34;20115;-68
2021/12/07 02:55:58;;;;;;;4.57;3.53;;;;;;;;;;4136070;34;20452;-72
2021/12/07 02:58:25;;;;;;;5.32;3.90;;;;;;;;;;4123493;34;20154;-70
2021/12/07 03:01:04;;;;;;;4.12;3.72;;;;;;;;;;4123449;34;20100;-75
2021/12/07 03:03:35;;;;;;;4.18;3.78;;;;;;;;;;4113091;34;20131;-72
2021/12/07 03:06:36;;;;;;;4.20;3.47;;;;;;;;;;4123390;34;20179;-71
2021/12/07 03:26:03;;;;;;;7.50;3.85;;;;;;;;;;4135618;34;20167;-74
2021/12/07 03:28:31;;;;;;;4.18;3.78;;;;;;;;;;4125472;34;20146;-76
2021/12/07 03:30:57;;;;;;;8.15;4.03;;;;;;;;;;4113012;34;20535;-73
2021/12/07 03:33:23;;;;;;;4.90;4.10;;;;;;;;;;4124878;34;20537;-74
2021/12/07 03:35:49;;;;;;;6.25;4.45;;;;;;;;;;4125405;34;20559;-74
2021/12/07 03:38:15;;;;;;;9.13;5.15;;;;;;;;;;4137509;34;20115;-71
2021/12/07 03:40:41;;;;;;;9.75;5.75;;;;;;;;;;4125119;34;20539;-71
2021/12/07 03:43:07;;;;;;;7.00;5.68;;;;;;;;;;4124891;34;20111;-72
2021/12/07 03:45:34;;;;;;;9.52;5.62;;;;;;;;;;4137369;34;20119;-70
2021/12/07 03:48:02;;;;;;;8.82;6.85;;;;;;;;;;4125062;34;20525;-71
2021/12/07 03:50:28;;;;;;;11.52;6.78;;;;;;;;;;4137369;34;20214;-72
2021/12/07 03:52:54;;;;;;;15.48;6.68;;;;;;;;;;4137336;34;20204;-71
2021/12/07 03:55:21;;;;;;;11.00;6.72;;;;;;;;;;4137319;34;20190;-71
2021/12/07 03:57:47;;;;;;;12.00;6.80;;;;;;;;;;4137291;34;20204;-70
2021/12/07 04:00:17;;;;;;;10.57;6.05;;;;;;;;;;4137178;34;20603;-69
2021/12/07 04:02:45;;;;;;;7.32;5.82;;;;;;;;;;4137289;34;20111;-70
2021/12/07 04:05:15;;;;;;;12.37;7.35;;;;;;;;;;4137221;34;20461;-70
2021/12/07 04:07:42;;;;;;;11.35;5.25;;;;;;;;;;4137402;34;20122;-70
2021/12/07 04:10:10;;;;;;;12.70;5.10;;;;;;;;;;4137480;34;20096;-71
2021/12/07 04:12:36;;;;;;;6.05;4.53;;;;;;;;;;4137516;34;20607;-70
2021/12/07 04:15:04;;;;;;;6.18;4.10;;;;;;;;;;4137223;34;20107;-70
2021/12/07 04:17:30;;;;;;;8.60;5.03;;;;;;;;;;4137199;34;20115;-70
2021/12/07 04:19:56;;;;;;;12.77;5.00;;;;;;;;;;4136863;34;20116;-70
2021/12/07 04:22:22;;;;;;;18.87;4.93;;;;;;;;;;4137113;34;20123;-71
2021/12/07 04:24:48;;;;;;;10.77;4.72;;;;;;;;;;4137310;34;20191;-70
2021/12/07 04:27:14;;;;;;;48.85;6.12;;;;;;;;;;4137088;34;20205;-70
2021/12/07 04:29:40;;;;;;;13.52;5.05;;;;;;;;;;4124657;34;20456;-70
2021/12/07 04:32:07;;;;;;;7.97;5.05;;;;;;;;;;4124675;34;20540;-70
2021/12/07 04:34:33;;;;;;;12.60;4.72;;;;;;;;;;4136920;34;20115;-73
2021/12/07 04:36:59;;;;;;;8.30;4.37;;;;;;;;;;4137266;34;20115;-70
2021/12/07 04:39:25;;;;;;;8.93;4.82;;;;;;;;;;4137106;34;20221;-70
2021/12/07 04:41:52;;;;;;;6.85;4.75;;;;;;;;;;4136843;34;20559;-70
2021/12/07 04:44:21;;;;;;;8.90;4.70;;;;;;;;;;4137023;34;20183;-70
2021/12/07 04:47:19;;;;;;;9.00;5.20;;;;;;;;;;4136878;34;20216;-70
2021/12/07 04:57:45;;;;;;;16.77;6.07;;;;;;;;;;4136950;34;20119;-70
2021/12/07 05:00:18;;;;;;;8.07;4.60;;;;;;;;;;4136924;34;20137;-71
2021/12/07 05:02:50;;;;;;;16.35;4.95;;;;;;;;;;4136825;34;20111;-70
2021/12/07 05:05:17;;;;;;;27.00;5.97;;;;;;;;;;4136754;34;20556;-71
2021/12/07 05:07:49;;;;;;;7.50;4.62;;;;;;;;;;4136922;34;20173;-72
2021/12/07 05:39:32;;;;;;;11.35;7.20;;;;;;;;;;4136660;34;20449;-71
2021/12/07 05:41:58;;;;;;;52.60;9.75;;;;;;;;;;4136400;34;20583;-70
2021/12/07 05:44:25;;;;;;;25.70;7.53;;;;;;;;;;4136408;34;20111;-70
2021/12/07 05:46:51;;;;;;;17.25;6.22;;;;;;;;;;4113118;34;20441;-71
2021/12/07 05:49:17;;;;;;;34.13;7.00;;;;;;;;;;4124264;34;20127;-71
2021/12/07 05:51:43;;;;;;;10.68;5.65;;;;;;;;;;4136410;34;20115;-71
2021/12/07 05:54:09;;;;;;;14.80;6.05;;;;;;;;;;4136000;34;20495;-71
2021/12/07 05:56:35;;;;;;;21.40;6.22;;;;;;;;;;4136337;34;20120;-71
2021/12/07 05:59:01;;;;;;;12.55;6.78;;;;;;;;;;4136437;34;20146;-70
2021/12/07 06:01:27;;;;;;;12.40;6.22;;;;;;;;;;4136344;34;20115;-70
2021/12/07 06:03:53;;;;;;;9.93;6.07;;;;;;;;;;4136318;34;20126;-71
2021/12/07 06:06:19;;;;;;;13.35;6.90;;;;;;;;;;4136352;34;20110;-70
2021/12/07 06:08:46;;;;;;;15.27;5.70;;;;;;;;;;4136323;34;20182;-70
2021/12/07 06:11:12;;;;;;;12.82;6.05;;;;;;;;;;4136359;34;20096;-70
2021/12/07 06:13:38;;;;;;;11.20;6.12;;;;;;;;;;4136213;34;20114;-72
2021/12/07 06:16:07;;;;;;;9.00;6.70;;;;;;;;;;4123821;34;20115;-71
2021/12/07 06:18:35;;;;;;;12.20;5.85;;;;;;;;;;4124177;34;20118;-71
2021/12/07 06:21:03;;;;;;;32.13;9.35;;;;;;;;;;4123987;34;20123;-70
2021/12/07 06:23:29;;;;;;;17.60;8.70;;;;;;;;;;4136351;34;20122;-70
2021/12/07 06:25:56;;;;;;;18.33;8.70;;;;;;;;;;4123734;34;20100;-71
2021/12/07 06:28:23;;;;;;;24.02;7.70;;;;;;;;;;4136024;34;20120;-70
2021/12/07 06:30:49;;;;;;;18.00;8.75;;;;;;;;;;4136165;34;20535;-70
2021/12/07 06:33:18;;;;;;;10.82;7.53;;;;;;;;;;4135998;34;20123;-71
2021/12/07 06:35:44;;;;;;;21.23;8.27;;;;;;;;;;4135924;34;20118;-72
2021/12/07 06:38:11;;;;;;;25.23;8.57;;;;;;;;;;4135970;34;20228;-68
2021/12/07 06:40:37;;;;;;;20.08;9.85;;;;;;;;;;4135869;34;20103;-71
2021/12/07 06:43:03;;;;;;;25.30;11.25;;;;;;;;;;4135989;34;20111;-69
2021/12/07 06:45:29;;;;;;;23.50;11.15;;;;;;;;;;4135908;34;20116;-69
2021/12/07 06:47:56;;;;;;;23.90;10.40;;;;;;;;;;4134371;34;20135;-69
2021/12/07 06:50:23;;;;;;;27.08;11.05;;;;;;;;;;4135841;34;20096;-70
2021/12/07 06:52:49;;;;;;;23.73;11.02;;;;;;;;;;4135832;34;20235;-69
2021/12/07 06:55:15;;;;;;;18.37;8.65;;;;;;;;;;4123526;34;20429;-69
2021/12/07 06:57:41;;;;;;;17.90;8.00;;;;;;;;;;4123237;34;20188;-69
2021/12/07 07:00:09;;;;;;;21.08;8.40;;;;;;;;;;4135860;34;20099;-72
2021/12/07 07:02:35;;;;;;;23.75;7.87;;;;;;;;;;4135737;34;20530;-70
2021/12/07 07:05:02;;;;;;;40.25;7.93;;;;;;;;;;4135939;34;20135;-69
2021/12/07 07:07:28;;;;;;;18.45;8.70;;;;;;;;;;4137790;34;20095;-71
2021/12/07 07:09:54;;;;;;;26.37;8.38;;;;;;;;;;4137798;34;20531;-71
2021/12/07 07:12:20;;;;;;;15.95;7.87;;;;;;;;;;4137927;34;20115;-71
2021/12/07 07:14:47;;;;;;;28.45;8.13;;;;;;;;;;4137798;34;20115;-71
2021/12/07 07:17:13;;;;;;;19.98;8.15;;;;;;;;;;4137765;34;20108;-71
2021/12/07 07:19:39;;;;;;;19.98;8.02;;;;;;;;;;4137619;34;20119;-73
2021/12/07 07:22:05;;;;;;;16.80;6.90;;;;;;;;;;4125127;34;20120;-65
2021/12/07 07:24:32;;;;;;;18.70;6.50;;;;;;;;;;4137712;34;20486;-64
2021/12/07 07:26:59;;;;;;;16.87;7.12;;;;;;;;;;4125435;34;20196;-65
2021/12/07 07:29:25;;;;;;;20.85;8.25;;;;;;;;;;4137554;34;20099;-66
2021/12/07 07:31:51;;;;;;;21.85;7.20;;;;;;;;;;4137640;34;20122;-64
2021/12/07 07:34:17;;;;;;;15.07;6.78;;;;;;;;;;4137507;34;20508;-66
2021/12/07 07:36:44;;;;;;;15.82;5.70;;;;;;;;;;4137628;34;20200;-66
2021/12/07 07:39:10;;;;;;;19.12;5.10;;;;;;;;;;4137613;34;20104;-67
2021/12/07 07:41:37;;;;;;;18.73;4.97;;;;;;;;;;4137541;34;20146;-68
2021/12/07 07:44:03;;;;;;;14.68;6.45;;;;;;;;;;4125174;34;20122;-68
2021/12/07 07:46:29;;;;;;;12.90;5.50;;;;;;;;;;4137521;34;20534;-72
2021/12/07 07:48:55;;;;;;;12.93;4.80;;;;;;;;;;4124913;34;20280;-73
2021/12/07 07:51:21;;;;;;;14.90;5.62;;;;;;;;;;4124961;34;20130;-73
2021/12/07 07:53:48;;;;;;;14.38;5.60;;;;;;;;;;4137628;34;20108;-72
2021/12/07 07:56:14;;;;;;;21.42;5.60;;;;;;;;;;4137362;34;20115;-72
2021/12/07 07:58:40;;;;;;;22.65;5.87;;;;;;;;;;4137379;34;20140;-74
2021/12/07 08:01:07;;;;;;;17.37;6.43;;;;;;;;;;4137366;34;20539;-74
2021/12/07 08:03:33;;;;;;;17.67;7.05;;;;;;;;;;4137227;34;20123;-73
2021/12/07 08:05:59;;;;;;;19.33;6.95;;;;;;;;;;4137560;34;20111;-72
2021/12/07 08:08:25;;;;;;;26.33;6.10;;;;;;;;;;4137306;34;20599;-73
2021/12/07 08:10:51;;;;;;;17.58;7.65;;;;;;;;;;4137358;34;20115;-73
2021/12/07 08:13:18;;;;;;;13.13;6.93;;;;;;;;;;4137214;34;20115;-74
2021/12/07 08:15:46;;;;;;;10.40;6.35;;;;;;;;;;4124485;34;20111;-71
2021/12/07 08:18:13;;;;;;;20.20;6.93;;;;;;;;;;4137123;34;20111;-72
2021/12/07 08:20:40;;;;;;;31.20;6.78;;;;;;;;;;4137492;34;20504;-71
2021/12/07 08:23:06;;;;;;;18.08;6.95;;;;;;;;;;4124600;34;20111;-73
2021/12/07 08:25:43;;;;;;;21.48;6.87;;;;;;;;;;4137066;34;20131;-68
2021/12/07 08:28:14;;;;;;;12.85;7.07;;;;;;;;;;4137181;34;20197;-70
2021/12/07 08:30:41;;;;;;;17.10;7.80;;;;;;;;;;4137192;34;20417;-71
2021/12/07 08:33:08;;;;;;;17.90;5.35;;;;;;;;;;4137034;34;20127;-70
2021/12/07 08:35:34;;;;;;;18.98;5.03;;;;;;;;;;4137082;34;20614;-69
2021/12/07 08:38:01;;;;;;;25.45;6.05;;;;;;;;;;4137127;34;20501;-71
2021/12/07 08:40:29;;;;;;;22.15;5.45;;;;;;;;;;4124444;34;20539;-69
2021/12/07 08:42:57;;;;;;;20.67;5.20;;;;;;;;;;4137024;34;20130;-70
2021/12/07 08:45:24;;;;;;;25.27;6.03;;;;;;;;;;4136889;34;20115;-69
2021/12/07 08:47:50;;;;;;;53.05;8.50;;;;;;;;;;4124517;34;20441;-68
2021/12/07 08:50:19;;;;;;;17.05;6.43;;;;;;;;;;4137174;34;20118;-67
2021/12/07 08:52:47;;;;;;;27.25;6.82;;;;;;;;;;4136874;34;20139;-69
2021/12/07 09:00:33;;;;;;;18.58;5.32;;;;;;;;;;4126460;34;20099;-68
2021/12/07 09:02:59;;;;;;;21.95;5.68;;;;;;;;;;4136896;34;20104;-69
2021/12/07 09:05:25;;;;;;;12.40;5.75;;;;;;;;;;4136679;34;20225;-70
2021/12/07 09:07:51;;;;;;;9.30;5.53;;;;;;;;;;4136807;34;20111;-69
2021/12/07 09:10:17;;;;;;;32.55;6.93;;;;;;;;;;4124346;34;20111;-68
2021/12/07 09:12:44;;;;;;;17.85;5.90;;;;;;;;;;4137045;34;20424;-69
2021/12/07 09:15:10;;;;;;;17.10;5.93;;;;;;;;;;4136670;34;20107;-70
2021/12/07 09:17:37;;;;;;;24.30;6.45;;;;;;;;;;4137201;34;20457;-70
2021/12/07 09:20:06;;;;;;;39.00;7.50;;;;;;;;;;4136624;34;20125;-70
2021/12/07 09:22:32;;;;;;;17.37;6.75;;;;;;;;;;4136786;34;20197;-70
2021/12/07 09:24:59;;;;;;;31.02;7.97;;;;;;;;;;4136605;34;20107;-69
2021/12/07 09:27:25;;;;;;;14.38;5.10;;;;;;;;;;4136526;34;20115;-71
2021/12/07 09:29:51;;;;;;;11.65;5.93;;;;;;;;;;4136342;34;20536;-73
2021/12/07 09:32:17;;;;;;;12.95;5.20;;;;;;;;;;4124246;34;20107;-73
2021/12/07 09:34:43;;;;;;;19.70;5.82;;;;;;;;;;4123914;34;20108;-74
2021/12/07 09:37:09;;;;;;;21.45;5.35;;;;;;;;;;4102539;34;20111;-73
2021/12/07 09:39:35;;;;;;;28.90;7.60;;;;;;;;;;4136548;34;20547;-73
2021/12/07 09:42:01;;;;;;;24.05;7.28;;;;;;;;;;4124363;34;20115;-75
2021/12/07 09:44:27;;;;;;;21.85;5.82;;;;;;;;;;4136632;34;20215;-75
2021/12/07 09:46:53;;;;;;;17.48;6.35;;;;;;;;;;4136581;34;20126;-75
2021/12/07 09:49:19;;;;;;;24.92;6.35;;;;;;;;;;4124171;34;20526;-75
2021/12/07 09:51:45;;;;;;;14.15;4.80;;;;;;;;;;4124290;34;20123;-76
2021/12/07 09:54:11;;;;;;;14.18;5.28;;;;;;;;;;4136351;34;20531;-75
2021/12/07 09:56:39;;;;;;;15.20;5.35;;;;;;;;;;4136418;34;20481;-74
2021/12/07 09:59:06;;;;;;;18.98;5.50;;;;;;;;;;4136181;34;20270;-72
2021/12/07 10:01:32;;;;;;;28.90;5.95;;;;;;;;;;4136447;34;20546;-71
2021/12/07 10:03:58;;;;;;;20.00;5.87;;;;;;;;;;4113067;34;20127;-64
2021/12/07 10:06:24;;;;;;;20.52;5.20;;;;;;;;;;4136395;34;20115;-64
2021/12/07 10:08:51;;;;;;;18.00;5.12;;;;;;;;;;4137806;34;20119;-64
2021/12/07 10:11:17;;;;;;;10.48;5.12;;;;;;;;;;4137350;34;20126;-65
2021/12/07 10:13:45;;;;;;;20.58;5.72;;;;;;;;;;4144528;34;20191;-63
2021/12/07 10:16:15;;;;;;;16.95;6.03;;;;;;;;;;4127565;34;20468;-62
2021/12/07 10:18:42;;;;;;;19.50;6.10;;;;;;;;;;4121466;34;20236;-63
2021/12/07 10:21:16;;;;;;;13.75;4.78;;;;;;;;;;4127945;34;20430;-63
2021/12/07 10:23:45;;;;;;;27.65;6.43;;;;;;;;;;4140375;34;20226;-61
2021/12/07 10:26:16;;;;;;;13.93;5.90;;;;;;;;;;4126055;34;20207;-63
2021/12/07 10:29:00;;;;;;;19.20;6.68;;;;;;;;;;4137241;34;20134;-63
2021/12/07 10:31:26;;;;;;;17.37;6.10;;;;;;;;;;4137048;34;20114;-63
2021/12/07 10:34:02;;;;;;;15.85;6.05;;;;;;;;;;4149313;34;20115;-65
2021/12/07 10:36:42;;;;;;;21.48;6.80;;;;;;;;;;4149291;34;20240;-63
2021/12/07 10:39:19;;;;;;;21.15;6.50;;;;;;;;;;4149933;34;20136;-62
2021/12/07 10:41:50;;;;;;;18.80;6.00;;;;;;;;;;4153756;34;20194;-65
2021/12/07 10:44:19;;;;;;;16.80;6.22;;;;;;;;;;4138555;34;20190;-66
2021/12/07 10:46:56;;;;;;;16.48;7.00;;;;;;;;;;4127902;34;20126;-67
2021/12/07 10:49:25;;;;;;;15.57;5.72;;;;;;;;;;4148371;34;20211;-68
2021/12/07 10:52:00;;;;;;;24.23;5.62;;;;;;;;;;4153367;34;20142;-66
2021/12/07 10:54:28;;;;;;;11.95;6.10;;;;;;;;;;4153212;34;20099;-67
2021/12/07 10:56:55;;;;;;;25.33;5.82;;;;;;;;;;4140896;34;20492;-66
2021/12/07 10:59:21;;;;;;;28.40;5.82;;;;;;;;;;4153771;34;20107;-67
2021/12/07 11:01:49;;;;;;;11.48;5.35;;;;;;;;;;4153905;34;20199;-66
2021/12/07 11:04:29;;;;;;;12.70;5.53;;;;;;;;;;4140808;34;20138;-65
2021/12/07 11:07:12;;;;;;;18.40;6.43;;;;;;;;;;4153532;34;20505;-66
2021/12/07 11:09:50;;;;;;;11.50;6.03;;;;;;;;;;4140851;34;20131;-67
2021/12/07 11:12:19;;;;;;;16.65;6.35;;;;;;;;;;4119036;34;20735;-63
2021/12/07 11:14:52;;;;;;;17.95;9.52;;;;;;;;;;4140654;34;20126;-68
2021/12/07 11:17:25;;;;;;;15.13;6.80;;;;;;;;;;4129808;34;20133;-67
2021/12/07 11:19:52;;;;;;;27.90;8.20;;;;;;;;;;4153322;34;20127;-65
2021/12/07 11:22:21;;;;;;;20.98;6.95;;;;;;;;;;4141100;34;20503;-66
2021/12/07 11:24:48;;;;;;;20.25;8.43;;;;;;;;;;4153322;34;20118;-66
2021/12/07 11:30:07;;;;;;;14.60;9.05;;;;;;;;;;4151604;34;20119;-68
2021/12/07 11:32:34;;;;;;;35.35;9.05;;;;;;;;;;4153406;34;20121;-67
2021/12/07 11:35:12;;;;;;;15.25;6.97;;;;;;;;;;4140605;34;20126;-70
2021/12/07 11:37:39;;;;;;;19.40;8.25;;;;;;;;;;4153081;34;20128;-68
2021/12/07 11:40:07;;;;;;;29.87;9.95;;;;;;;;;;4139742;34;20523;-67
2021/12/07 11:42:37;;;;;;;23.30;8.63;;;;;;;;;;4142647;34;20111;-67
2021/12/07 11:45:09;;;;;;;12.48;8.25;;;;;;;;;;4145437;34;20079;-68
2021/12/07 11:47:42;;;;;;;26.65;7.87;;;;;;;;;;4153388;34;20326;-66
2021/12/07 11:50:31;;;;;;;26.12;7.95;;;;;;;;;;4143106;34;20485;-68
2021/12/07 11:53:03;;;;;;;23.67;7.90;;;;;;;;;;4113535;34;20110;-68
2021/12/07 11:55:31;;;;;;;14.00;6.55;;;;;;;;;;4137363;34;20185;-69
2021/12/07 11:57:58;;;;;;;16.02;6.60;;;;;;;;;;4143348;34;20497;-69
2021/12/07 12:00:28;;;;;;;20.33;5.82;;;;;;;;;;4138220;34;20145;-70
2021/12/07 12:02:55;;;;;;;18.10;6.32;;;;;;;;;;4138320;34;20111;-64
2021/12/07 12:05:21;;;;;;;37.53;7.22;;;;;;;;;;4138066;34;20159;-64
2021/12/07 12:07:49;;;;;;;17.00;6.15;;;;;;;;;;4138528;34;20111;-64
2021/12/07 12:10:17;;;;;;;14.63;6.53;;;;;;;;;;4150707;34;20531;-65
2021/12/07 12:12:49;;;;;;;12.10;5.93;;;;;;;;;;4150773;34;20113;-65
2021/12/07 12:16:04;;;;;;;18.98;6.62;;;;;;;;;;4143437;34;20131;-65
2021/12/07 12:18:45;;;;;;;21.80;9.27;;;;;;;;;;4120573;34;20112;-63
2021/12/07 12:21:22;;;;;;;24.37;8.02;;;;;;;;;;4137059;34;20187;-65
2021/12/07 12:24:22;;;;;;;22.35;8.15;;;;;;;;;;4124980;34;20096;-64
2021/12/07 12:26:49;;;;;;;30.42;7.75;;;;;;;;;;4137374;34;20119;-69
2021/12/07 12:29:17;;;;;;;26.30;8.38;;;;;;;;;;4137049;34;20099;-67
2021/12/07 12:31:54;;;;;;;39.08;8.50;;;;;;;;;;4124457;34;20116;-65
2021/12/07 12:34:47;;;;;;;26.27;6.72;;;;;;;;;;4124767;34;20131;-66
2021/12/07 12:37:17;;;;;;;16.30;6.47;;;;;;;;;;4137128;34;20107;-68
2021/12/07 12:39:53;;;;;;;24.30;7.28;;;;;;;;;;4137538;34;20116;-72
2021/12/07 12:42:38;;;;;;;34.80;9.05;;;;;;;;;;4128364;34;20102;-72
2021/12/07 12:45:29;;;;;;;21.73;7.60;;;;;;;;;;4150864;34;20118;-73
2021/12/07 12:47:59;;;;;;;21.73;7.47;;;;;;;;;;4135900;34;20131;-73
2021/12/07 12:50:48;;;;;;;23.80;7.37;;;;;;;;;;4135667;34;20111;-72
2021/12/07 12:53:17;;;;;;;21.95;8.70;;;;;;;;;;4136874;34;20119;-72
2021/12/07 12:55:59;;;;;;;20.58;7.50;;;;;;;;;;4136846;34;20117;-73
2021/12/07 12:58:27;;;;;;;22.65;7.20;;;;;;;;;;4149676;34;20119;-73
2021/12/07 13:01:14;;;;;;;23.20;7.40;;;;;;;;;;4149714;34;20299;-72
2021/12/07 13:03:40;;;;;;;23.87;7.53;;;;;;;;;;4150043;34;20134;-72
2021/12/07 13:06:07;;;;;;;26.62;8.00;;;;;;;;;;4138130;34;20215;-72
2021/12/07 13:08:54;;;;;;;24.85;7.68;;;;;;;;;;4150166;34;20125;-72
2021/12/07 13:11:45;;;;;;;24.48;8.77;;;;;;;;;;4150721;34;20093;-72
2021/12/07 13:14:23;;;;;;;20.37;8.35;;;;;;;;;;4137695;34;20112;-73
2021/12/07 13:16:53;;;;;;;19.87;7.85;;;;;;;;;;4150543;34;20221;-72
2021/12/07 13:19:20;;;;;;;26.77;7.32;;;;;;;;;;4150060;34;20574;-72
2021/12/07 13:21:47;;;;;;;29.80;8.88;;;;;;;;;;4150318;34;20094;-72
2021/12/07 13:24:18;;;;;;;25.73;8.57;;;;;;;;;;4137723;34;20133;-73
2021/12/07 13:26:47;;;;;;;61.25;9.93;;;;;;;;;;4150208;34;20483;-73
2021/12/07 13:29:17;;;;;;;42.70;10.40;;;;;;;;;;4137838;34;20107;-73
2021/12/07 13:31:46;;;;;;;40.00;8.50;;;;;;;;;;4150360;34;20130;-73
2021/12/07 13:34:14;;;;;;;32.10;8.20;;;;;;;;;;4150471;34;20111;-73
2021/12/07 13:36:56;;;;;;;17.70;7.75;;;;;;;;;;4150138;34;20123;-73
2021/12/07 13:39:23;;;;;;;23.42;7.20;;;;;;;;;;4150102;34;20504;-72
2021/12/07 13:42:03;;;;;;;34.85;8.05;;;;;;;;;;4149933;34;20122;-73
2021/12/07 13:44:35;;;;;;;20.67;7.80;;;;;;;;;;4126851;34;20167;-73
2021/12/07 13:47:28;;;;;;;21.75;8.20;;;;;;;;;;4126316;34;20107;-72
2021/12/07 13:49:58;;;;;;;29.73;8.52;;;;;;;;;;4149887;34;20222;-73
2021/12/07 13:52:27;;;;;;;26.73;6.93;;;;;;;;;;4149915;34;20099;-73
2021/12/07 13:54:56;;;;;;;23.65;7.57;;;;;;;;;;4150093;34;20194;-73
2021/12/07 13:57:35;;;;;;;18.50;6.95;;;;;;;;;;4149863;34;20215;-68
2021/12/07 14:00:06;;;;;;;15.50;6.47;;;;;;;;;;4145798;34;20453;-72
2021/12/07 14:02:33;;;;;;;16.48;7.28;;;;;;;;;;4122661;34;20212;-73
2021/12/07 14:05:10;;;;;;;22.02;7.62;;;;;;;;;;4125163;34;20115;-72
2021/12/07 14:07:36;;;;;;;25.73;7.95;;;;;;;;;;4126396;34;20103;-72
2021/12/07 14:10:12;;;;;;;24.35;8.00;;;;;;;;;;4137157;34;20134;-72
2021/12/07 14:12:39;;;;;;;13.80;7.85;;;;;;;;;;4149785;34;20111;-73
2021/12/07 14:15:29;;;;;;;18.90;7.65;;;;;;;;;;4136670;34;20119;-74
2021/12/07 14:17:59;;;;;;;25.88;7.93;;;;;;;;;;4132901;34;20139;-73
2021/12/07 14:20:35;;;;;;;24.55;7.87;;;;;;;;;;4134923;34;20115;-72
2021/12/07 14:23:13;;;;;;;27.62;10.10;;;;;;;;;;4135080;34;20104;-71
2021/12/07 14:26:08;;;;;;;20.17;8.27;;;;;;;;;;4124034;34;20134;-72
2021/12/07 14:28:46;;;;;;;16.52;8.52;;;;;;;;;;4135269;34;20127;-72
2021/12/07 14:31:36;;;;;;;25.17;9.13;;;;;;;;;;4136149;34;20204;-72
2021/12/07 14:34:16;;;;;;;23.65;8.77;;;;;;;;;;4133206;34;20138;-72
2021/12/07 14:36:49;;;;;;;26.17;9.65;;;;;;;;;;4136906;34;20127;-73
2021/12/07 14:39:21;;;;;;;30.00;9.05;;;;;;;;;;4149542;34;20095;-74
2021/12/07 14:41:53;;;;;;;23.42;8.95;;;;;;;;;;4136926;34;20234;-73
2021/12/07 14:44:21;;;;;;;24.95;10.43;;;;;;;;;;4125942;34;20131;-73
2021/12/07 14:46:49;;;;;;;19.15;8.45;;;;;;;;;;4136559;34;20201;-71
2021/12/07 14:49:15;;;;;;;25.27;9.65;;;;;;;;;;4147789;34;20107;-71
2021/12/07 14:51:43;;;;;;;19.77;9.75;;;;;;;;;;4147513;34;20103;-72
2021/12/07 14:54:09;;;;;;;26.23;9.63;;;;;;;;;;4146297;34;20122;-71
2021/12/07 14:56:36;;;;;;;16.30;7.97;;;;;;;;;;4149279;34;20712;-69
2021/12/07 14:59:12;;;;;;;16.95;8.90;;;;;;;;;;4134720;34;20129;-71
2021/12/07 15:01:40;;;;;;;27.90;8.68;;;;;;;;;;4136353;34;20110;-72
2021/12/07 15:04:09;;;;;;;13.50;8.13;;;;;;;;;;4149099;34;20099;-72
2021/12/07 15:06:36;;;;;;;19.75;8.45;;;;;;;;;;4136872;34;20104;-71
2021/12/07 15:09:07;;;;;;;22.55;9.73;;;;;;;;;;4149169;34;20185;-70
2021/12/07 15:11:40;;;;;;;20.80;8.68;;;;;;;;;;4124882;34;20143;-73
2021/12/07 15:14:07;;;;;;;28.75;8.93;;;;;;;;;;4148999;34;20101;-75
2021/12/07 15:16:39;;;;;;;24.08;8.30;;;;;;;;;;4136918;34;20107;-73
2021/12/07 15:19:05;;;;;;;18.83;8.52;;;;;;;;;;4148913;34;20126;-72
2021/12/07 15:21:34;;;;;;;25.10;9.13;;;;;;;;;;4136331;34;20107;-73
2021/12/07 15:24:17;;;;;;;16.37;8.07;;;;;;;;;;4148583;34;20101;-72
2021/12/07 15:26:43;;;;;;;19.02;8.18;;;;;;;;;;4137520;34;20103;-73
2021/12/07 15:29:15;;;;;;;24.77;8.60;;;;;;;;;;4150955;34;20123;-73
2021/12/07 15:31:42;;;;;;;23.23;8.55;;;;;;;;;;4128123;34;20139;-74
2021/12/07 15:34:09;;;;;;;14.30;8.57;;;;;;;;;;4124325;34;20107;-74
2021/12/07 15:36:40;;;;;;;20.37;9.45;;;;;;;;;;4137483;34;20440;-75
2021/12/07 15:39:07;;;;;;;10.43;7.45;;;;;;;;;;4145884;34;20231;-72
2021/12/07 15:41:34;;;;;;;11.35;7.75;;;;;;;;;;4164302;34;20142;-69
2021/12/07 15:44:00;;;;;;;12.45;8.40;;;;;;;;;;4154235;34;20118;-76
2021/12/07 15:46:26;;;;;;;12.45;7.75;;;;;;;;;;4138572;34;20111;-75
2021/12/07 15:48:55;;;;;;;14.00;6.93;;;;;;;;;;4138147;34;20108;-74
2021/12/07 15:51:22;;;;;;;17.77;7.75;;;;;;;;;;4151786;34;20126;-74
2021/12/07 15:53:48;;;;;;;60.97;9.10;;;;;;;;;;4137899;34;20091;-74
2021/12/07 15:56:19;;;;;;;19.90;8.80;;;;;;;;;;4137552;34;20194;-73
2021/12/07 15:58:46;;;;;;;15.45;7.85;;;;;;;;;;4150842;34;20617;-73
2021/12/07 16:01:13;;;;;;;15.60;8.23;;;;;;;;;;4150763;34;20231;-73
2021/12/07 16:03:42;;;;;;;18.35;9.00;;;;;;;;;;4150781;34;20194;-73
2021/12/07 16:06:22;;;;;;;14.87;8.52;;;;;;;;;;4138733;34;20134;-72
2021/12/07 16:08:48;;;;;;;18.37;7.18;;;;;;;;;;4151860;34;20210;-74
2021/12/07 16:11:20;;;;;;;14.65;7.65;;;;;;;;;;4138696;34;20638;-74
2021/12/07 16:13:53;;;;;;;18.20;8.90;;;;;;;;;;4150831;34;20118;-74
2021/12/07 16:16:21;;;;;;;10.93;6.90;;;;;;;;;;4138455;34;20119;-74
2021/12/07 16:18:48;;;;;;;11.45;7.00;;;;;;;;;;4150602;34;20115;-72
2021/12/07 16:21:16;;;;;;;10.27;7.50;;;;;;;;;;4127178;34;20123;-71
2021/12/07 16:23:49;;;;;;;23.55;8.38;;;;;;;;;;4137946;34;20135;-69
2021/12/07 16:26:16;;;;;;;16.90;8.65;;;;;;;;;;4150621;34;20111;-68
2021/12/07 16:28:48;;;;;;;22.52;9.93;;;;;;;;;;4150592;34;20167;-70
2021/12/07 16:31:15;;;;;;;16.75;8.77;;;;;;;;;;4150978;34;20119;-70
2021/12/07 16:33:42;;;;;;;12.40;7.75;;;;;;;;;;4150889;34;20115;-73
2021/12/07 16:36:08;;;;;;;10.90;7.55;;;;;;;;;;4150583;34;20207;-73
2021/12/07 16:38:35;;;;;;;14.23;8.15;;;;;;;;;;4115386;34;20528;-74
2021/12/07 16:41:02;;;;;;;11.57;6.80;;;;;;;;;;4126872;34;20218;-73
2021/12/07 16:43:28;;;;;;;11.32;7.07;;;;;;;;;;4150579;34;20115;-71
2021/12/07 16:45:55;;;;;;;14.18;7.45;;;;;;;;;;4137835;34;20868;-70
2021/12/07 16:48:21;;;;;;;13.62;7.40;;;;;;;;;;4150351;34;20222;-73
2021/12/07 16:50:48;;;;;;;15.05;7.82;;;;;;;;;;4126796;34;20207;-74